Cooper, Iowa
Current Conditions -  °F | °C
As of 11:35 PM on Wednesday 26 Nov 2014 (Local Time) from KPRO Reporting Station
Overcast Overcast  
Wind Chill:   Ceiling: 1100
Heat Index: 20°   Visibility: 10mi
Dew Point: 18°   Wind: 15mph
Humidity: 89%   Direction: 330°NNW
Pressure: 30.4"   Gusts: NA
Location:  41.92°N, 94.35°W
Report Text: KPRO 270535Z AUTO 33013KT 10SM BKN011 OVC017 M06/M08 A3040 RMK AO2 T10651080
Loading
Personal Weather Stations






























Interactive Weather Map New forecast layout! Learn more

10-Day Weather Forecast

Advertisements
Track Severe Weather on mobile